This is the latest recevied weather packets stored in our database for station/object W1RCY. If no packets are shown the sender has not sent any weather packets the latest 10 day(s).
| Time | Temp. | Humidity | Pressure | Rain* | Wind** | Luminosity | Snow |
|---|---|---|---|---|---|---|---|
| 1777695719 | 3.89° C | 74% | 1010.3 hPa | 0 mm | - | 0 W/m² | - |
| 1777695416 | 3.89° C | 72% | 1010.2 hPa | 0 mm | - | 0 W/m² | - |
| 1777695113 | 3.89° C | 74% | 1010 hPa | 0 mm | - | 0 W/m² | - |
| 1777694810 | 3.33° C | 77% | 1010.2 hPa | 0 mm | - | 0 W/m² | - |
| 1777694507 | 3.89° C | 77% | 1010 hPa | 0 mm | - | 0 W/m² | - |
| 1777694203 | 3.89° C | 76% | 1010.1 hPa | 0 mm | - | 0 W/m² | - |
| 1777693900 | 3.89° C | 74% | 1010.1 hPa | 0 mm | - | 0 W/m² | - |
| 1777693598 | 3.89° C | 75% | 1010.2 hPa | 0 mm | - | 0 W/m² | - |
| 1777693296 | 3.89° C | 74% | 1009.9 hPa | 0 mm | - | 0 W/m² | - |
| 1777692994 | 3.89° C | 75% | 1010 hPa | 0 mm | - | 0 W/m² | - |
| 1777692691 | 3.89° C | 74% | 1010 hPa | 0 mm | - | 0 W/m² | - |
| 1777692387 | 4.44° C | 73% | 1010 hPa | 0 mm | - | 0 W/m² | - |
| 1777692083 | 5° C | 72% | 1009.8 hPa | 0 mm | - | 0 W/m² | - |
| 1777691782 | 5° C | 70% | 1009.9 hPa | 0 mm | - | 0 W/m² | - |
| 1777691479 | 5.56° C | 70% | 1010.1 hPa | 0 mm | - | 0 W/m² | - |
| 1777691178 | 5° C | 70% | 1009.9 hPa | 0 mm | - | 0 W/m² | - |
| 1777690876 | 4.44° C | 72% | 1010.1 hPa | 0 mm | - | 0 W/m² | - |
| 1777690572 | 4.44° C | 74% | 1010 hPa | 0 mm | - | 0 W/m² | - |
| 1777690270 | 4.44° C | 72% | 1009.8 hPa | 0 mm | - | 0 W/m² | - |
| 1777689968 | 4.44° C | 73% | 1010 hPa | 0 mm | - | 0 W/m² | - |
| 1777689666 | 5° C | 69% | 1009.8 hPa | 0 mm | - | 0 W/m² | - |
| 1777689364 | 5.56° C | 66% | 1010 hPa | 0 mm | - | 0 W/m² | - |
| 1777689060 | 6.11° C | 64% | 1009.8 hPa | 0 mm | - | 0 W/m² | - |
| 1777688757 | 6.11° C | 63% | 1009.8 hPa | 0 mm | - | 0 W/m² | - |
| 1777688455 | 6.11° C | 63% | 1009.9 hPa | 0 mm | - | 0 W/m² | - |
* Rain latest hour (hover to see other rain measurements)
** Current wind speed in m/s (hover to see current wind gust speed)